Time;durP1;ratioP1;P1;durP2;ratioP2;P2;SDS_P1;SDS_P2;PMS_P1;PMS_P2;Temp;Humidity;BMP_temperature;BMP_pressure;BME280_temperature;BME280_humidity;BME280_pressure;Samples;Min_cycle;Max_cycle;Signal;HPM_P1;HPM_P2
2021/05/03 00:00:36;;;;;;;13.95;8.00;;;;;;;15.06;75.90;98239.66;1689563;84;21218;-41
2021/05/03 00:03:06;;;;;;;12.13;6.47;;;;;;;15.03;75.31;98242.47;1679267;84;21074;-41
2021/05/03 00:05:34;;;;;;;9.13;6.25;;;;;;;15.02;74.91;98240.33;1679117;84;21209;-41
2021/05/03 00:08:03;;;;;;;8.78;5.72;;;;;;;15.02;73.77;98243.05;1679192;84;21644;-41
2021/05/03 00:10:31;;;;;;;9.85;5.58;;;;;;;14.99;72.74;98246.63;1701902;84;21465;-41
2021/05/03 00:12:59;;;;;;;7.70;4.60;;;;;;;14.98;72.26;98242.94;1706423;84;21154;-41
2021/05/03 00:15:27;;;;;;;8.78;4.75;;;;;;;14.92;70.69;98247.31;1698521;84;21935;-41
2021/05/03 00:17:55;;;;;;;7.25;4.72;;;;;;;14.93;69.60;98250.23;1680863;84;21221;-41
2021/05/03 00:20:25;;;;;;;5.50;4.30;;;;;;;14.91;69.56;98253.98;1679275;84;21209;-41
2021/05/03 00:22:53;;;;;;;6.87;4.22;;;;;;;14.85;69.29;98250.95;1679132;84;21220;-41
2021/05/03 00:25:22;;;;;;;6.78;4.12;;;;;;;14.79;69.48;98241.69;1680187;84;21189;-41
2021/05/03 00:27:50;;;;;;;8.78;4.37;;;;;;;14.78;69.63;98249.69;1678924;84;21190;-41
2021/05/03 00:30:19;;;;;;;5.95;4.50;;;;;;;14.75;69.91;98251.89;1681305;84;21170;-40
2021/05/03 00:32:47;;;;;;;6.13;4.77;;;;;;;14.73;70.25;98251.52;1682861;84;21194;-41
2021/05/03 00:35:16;;;;;;;7.67;4.85;;;;;;;14.67;70.68;98249.08;1689499;84;21877;-41
2021/05/03 00:37:44;;;;;;;8.43;4.87;;;;;;;14.63;70.49;98240.95;1690277;84;21063;-41
2021/05/03 00:40:12;;;;;;;7.92;4.87;;;;;;;14.63;70.25;98249.14;1677566;84;21199;-41
2021/05/03 00:42:44;;;;;;;7.65;4.70;;;;;;;14.59;69.86;98242.20;1693647;84;21182;-41
2021/05/03 00:45:17;;;;;;;6.87;4.47;;;;;;;14.52;69.80;98254.00;1686094;84;21246;-41
2021/05/03 00:47:45;;;;;;;6.20;4.53;;;;;;;14.47;69.64;98249.59;1677058;84;21202;-41
2021/05/03 00:50:16;;;;;;;5.42;4.08;;;;;;;14.46;69.75;98250.77;1693482;84;21462;-41
2021/05/03 00:52:45;;;;;;;6.33;4.55;;;;;;;14.46;69.43;98252.14;1680884;84;21187;-41
2021/05/03 00:55:15;;;;;;;6.75;4.87;;;;;;;14.41;69.00;98253.96;1666020;86;21202;-41
2021/05/03 00:57:42;;;;;;;;;;;;;;;14.33;69.06;98266.28;1669063;84;21198;-41
2021/05/03 01:00:14;;;;;;;7.78;3.98;;;;;;;14.26;68.93;98269.13;1666436;84;21266;-41
2021/05/03 01:02:43;;;;;;;5.80;4.12;;;;;;;14.18;69.00;98268.27;1666073;86;21231;-41
2021/05/03 01:05:12;;;;;;;4.87;4.30;;;;;;;14.18;68.66;98284.63;1666053;86;21000;-41
2021/05/03 01:07:42;;;;;;;9.15;4.25;;;;;;;14.13;68.71;98285.86;1691930;84;21640;-41
2021/05/03 01:10:11;;;;;;;4.28;3.80;;;;;;;14.05;68.44;98277.56;1690503;84;21660;-41
2021/05/03 01:12:39;;;;;;;5.40;3.60;;;;;;;13.94;67.51;98287.23;1692779;84;21369;-41
2021/05/03 01:15:11;;;;;;;5.17;3.17;;;;;;;13.89;66.52;98291.77;1671258;84;21199;-41
2021/05/03 01:17:42;;;;;;;5.22;3.12;;;;;;;13.83;65.58;98289.33;1666872;84;21135;-41
2021/05/03 01:20:13;;;;;;;4.65;2.92;;;;;;;13.71;63.16;98276.22;1666566;84;21187;-41
2021/05/03 01:22:42;;;;;;;8.15;2.33;;;;;;;13.61;62.98;98285.27;1666653;84;21195;-41
2021/05/03 01:25:12;;;;;;;3.92;2.60;;;;;;;13.48;62.11;98291.83;1681837;84;21201;-41
2021/05/03 01:27:40;;;;;;;3.62;2.85;;;;;;;13.37;61.61;98302.05;1684031;84;21194;-40
2021/05/03 01:30:10;;;;;;;3.87;2.58;;;;;;;13.26;61.91;98306.83;1670301;84;21468;-41
2021/05/03 01:32:37;;;;;;;5.55;2.62;;;;;;;13.16;62.08;98309.05;1719764;82;21124;-40
2021/05/03 01:35:09;;;;;;;4.35;2.45;;;;;;;13.07;62.33;98316.84;1705098;82;21158;-41
2021/05/03 01:37:37;;;;;;;3.65;2.45;;;;;;;12.98;62.41;98308.37;1705154;82;21368;-41
2021/05/03 01:40:08;;;;;;;3.98;2.27;;;;;;;12.96;62.35;98310.15;1709810;83;21162;-41
2021/05/03 01:42:37;;;;;;;3.72;2.52;;;;;;;12.94;62.62;98307.05;1718292;83;21213;-40
2021/05/03 01:45:07;;;;;;;4.78;2.90;;;;;;;12.90;62.77;98310.97;1718270;82;21633;-41
2021/05/03 01:47:34;;;;;;;4.20;2.50;;;;;;;12.83;62.81;98318.58;1725568;82;26118;-40
2021/05/03 01:50:03;;;;;;;3.60;2.42;;;;;;;12.74;62.84;98317.48;1696726;82;22306;-41
2021/05/03 01:52:31;;;;;;;3.75;2.40;;;;;;;12.63;62.88;98322.40;1724700;81;21577;-41
2021/05/03 01:54:59;;;;;;;4.55;2.20;;;;;;;12.56;62.80;98325.76;1719103;82;21059;-40
2021/05/03 01:57:27;;;;;;;2.95;2.15;;;;;;;12.46;62.64;98323.28;1718329;82;21158;-41
2021/05/03 01:59:55;;;;;;;2.85;2.20;;;;;;;12.42;63.18;98318.46;1726229;82;21174;-41
2021/05/03 02:02:23;;;;;;;2.92;2.25;;;;;;;12.41;63.06;98316.13;1718256;83;21581;-40
2021/05/03 02:04:51;;;;;;;3.77;2.40;;;;;;;12.35;63.12;98327.22;1718051;83;21178;-40
2021/05/03 02:07:19;;;;;;;3.35;2.20;;;;;;;12.25;63.07;98317.20;1718392;82;21126;-41
2021/05/03 02:09:47;;;;;;;4.45;2.50;;;;;;;12.19;63.52;98323.04;1719235;82;21178;-41
2021/05/03 02:12:15;;;;;;;3.12;2.30;;;;;;;12.08;63.84;98328.31;1740753;82;21557;-40
2021/05/03 02:14:43;;;;;;;9.78;2.67;;;;;;;11.98;64.09;98330.48;1731007;82;21191;-41
2021/05/03 02:17:11;;;;;;;4.90;2.20;;;;;;;11.90;64.36;98338.47;1718433;82;21657;-41
2021/05/03 02:19:40;;;;;;;3.67;2.37;;;;;;;11.87;63.80;98339.23;1728011;82;21016;-40
2021/05/03 02:22:08;;;;;;;2.87;2.10;;;;;;;11.75;63.84;98352.09;1745760;82;21147;-41
2021/05/03 02:24:36;;;;;;;2.55;2.20;;;;;;;11.59;63.96;98354.98;1727284;82;21397;-41
2021/05/03 02:27:05;;;;;;;5.70;2.70;;;;;;;11.44;64.19;98361.01;1728336;82;21368;-41
2021/05/03 02:29:33;;;;;;;3.77;2.40;;;;;;;11.33;64.64;98371.86;1719237;82;21504;-40
2021/05/03 02:32:01;;;;;;;4.30;2.55;;;;;;;11.26;64.94;98369.74;1718242;82;21154;-40
2021/05/03 02:34:30;;;;;;;4.72;2.50;;;;;;;11.23;65.03;98384.09;1720305;82;21063;-40
2021/05/03 02:36:58;;;;;;;6.30;2.83;;;;;;;11.14;65.07;98389.09;1744156;82;21460;-41
2021/05/03 02:39:26;;;;;;;3.98;2.55;;;;;;;10.98;65.41;98384.64;1731594;82;21352;-41
2021/05/03 02:41:54;;;;;;;4.33;2.30;;;;;;;10.85;65.60;98385.57;1746960;82;21056;-40
2021/05/03 02:44:22;;;;;;;4.25;2.30;;;;;;;10.70;65.80;98386.12;1739718;82;21173;-40
2021/05/03 02:46:50;;;;;;;3.65;2.55;;;;;;;10.60;65.57;98391.53;1729544;82;22000;-40
2021/05/03 02:49:18;;;;;;;3.55;2.50;;;;;;;10.36;65.57;98376.74;1693741;82;21198;-40
2021/05/03 02:51:47;;;;;;;3.25;2.55;;;;;;;10.48;65.06;98417.61;1720169;82;21286;-40
2021/05/03 02:54:14;;;;;;;3.05;2.47;;;;;;;10.37;65.32;98417.55;1721052;82;21158;-40
2021/05/03 02:56:43;;;;;;;3.47;2.60;;;;;;;10.27;65.25;98416.92;1732853;82;21040;-40
2021/05/03 02:59:11;;;;;;;2.85;2.12;;;;;;;10.19;65.46;98418.84;1717973;83;21189;-41
2021/05/03 03:01:39;;;;;;;6.00;2.47;;;;;;;10.10;65.80;98416.23;1727439;80;21095;-40
2021/05/03 03:04:07;;;;;;;2.92;2.27;;;;;;;10.09;65.67;98418.74;1681359;83;21205;-40
2021/05/03 03:06:36;;;;;;;3.17;2.50;;;;;;;10.02;65.25;98431.08;1732258;82;21163;-41
2021/05/03 03:09:05;;;;;;;4.15;2.50;;;;;;;9.97;65.46;98436.84;1720528;82;21210;-40
2021/05/03 03:11:33;;;;;;;3.92;2.67;;;;;;;9.90;65.56;98434.69;1719165;82;21075;-40
2021/05/03 03:14:03;;;;;;;6.53;2.12;;;;;;;9.79;65.77;98446.79;1740567;82;21150;-40
2021/05/03 03:16:32;;;;;;;3.20;2.60;;;;;;;9.75;65.88;98437.87;1737394;82;21689;-40
2021/05/03 03:19:00;;;;;;;3.33;2.50;;;;;;;9.79;65.77;98442.73;1746969;82;21166;-40
2021/05/03 03:21:27;;;;;;;4.03;2.40;;;;;;;9.73;65.83;98438.81;1719000;82;21171;-41
2021/05/03 03:23:56;;;;;;;4.60;2.40;;;;;;;9.69;65.96;98439.36;1745675;82;21735;-40
2021/05/03 03:26:24;;;;;;;3.65;2.58;;;;;;;9.64;65.83;98443.77;1747814;82;21616;-41
2021/05/03 03:28:52;;;;;;;4.03;2.40;;;;;;;9.65;66.19;98445.33;1741489;82;21470;-41
2021/05/03 03:31:20;;;;;;;5.78;2.62;;;;;;;9.68;65.88;98445.17;1738252;82;21448;-41
2021/05/03 03:33:48;;;;;;;5.30;2.60;;;;;;;9.67;66.31;98432.79;1718685;82;21166;-41
2021/05/03 03:36:16;;;;;;;4.00;2.77;;;;;;;9.62;65.74;98446.09;1724052;82;21189;-41
2021/05/03 03:38:44;;;;;;;7.05;2.72;;;;;;;9.56;66.01;98445.66;1684866;83;21166;-41
2021/05/03 03:41:12;;;;;;;3.25;2.27;;;;;;;9.55;66.27;98456.84;1718959;82;21198;-41
2021/05/03 03:43:40;;;;;;;3.67;2.25;;;;;;;9.57;66.32;98455.34;1721390;82;21162;-41
2021/05/03 03:46:08;;;;;;;4.20;2.12;;;;;;;9.63;66.13;98457.12;1728759;82;21020;-41
2021/05/03 03:48:36;;;;;;;2.42;2.15;;;;;;;9.62;65.78;98459.63;1712586;82;21202;-41
2021/05/03 03:51:05;;;;;;;2.20;1.75;;;;;;;9.57;65.36;98455.91;1712902;81;21170;-41
2021/05/03 03:53:33;;;;;;;2.58;1.87;;;;;;;9.53;65.23;98477.53;1712728;82;21748;-41
2021/05/03 03:56:01;;;;;;;3.95;1.90;;;;;;;9.53;65.22;98477.53;1717713;82;21178;-41
2021/05/03 03:58:29;;;;;;;5.42;1.82;;;;;;;9.57;65.50;98487.81;1713906;82;21457;-41
2021/05/03 04:00:57;;;;;;;3.15;1.60;;;;;;;9.67;64.35;98497.73;1712884;82;21636;-41
2021/05/03 04:03:26;;;;;;;2.92;1.40;;;;;;;9.67;63.60;98498.52;1713012;82;21541;-41
2021/05/03 04:11:33;;;;;;;2.35;1.42;;;;;;;9.67;63.94;98513.98;1713031;82;21209;-41
2021/05/03 04:27:44;;;;;;;2.25;1.30;;;;;;;9.85;62.35;98519.73;1720836;82;21206;-41
2021/05/03 04:30:15;;;;;;;2.02;1.27;;;;;;;9.83;62.47;98522.03;1728044;82;21163;-41
2021/05/03 04:32:44;;;;;;;1.30;1.20;;;;;;;9.80;61.59;98555.84;1715174;82;21391;-41
2021/05/03 04:35:12;;;;;;;1.37;1.20;;;;;;;9.78;62.44;98534.55;1715186;82;21183;-41
2021/05/03 04:37:41;;;;;;;4.47;1.30;;;;;;;9.79;62.14;98529.92;1715961;82;21212;-41
2021/05/03 04:40:12;;;;;;;1.50;1.10;;;;;;;9.85;61.85;98538.69;1718857;82;21174;-41
2021/05/03 04:42:41;;;;;;;2.42;1.15;;;;;;;9.89;61.91;98537.36;1711893;82;21175;-41
2021/05/03 04:45:11;;;;;;;2.15;1.30;;;;;;;9.85;61.88;98552.80;1706393;82;21364;-41
2021/05/03 04:47:40;;;;;;;3.47;1.10;;;;;;;9.51;61.83;98497.41;1718190;82;21191;-41
2021/05/03 04:50:10;;;;;;;4.17;1.20;;;;;;;9.80;61.27;98546.38;1707835;82;21068;-41
2021/05/03 04:52:38;;;;;;;1.57;1.10;;;;;;;9.75;61.14;98556.97;1707811;82;21593;-41
2021/05/03 04:55:08;;;;;;;3.30;1.15;;;;;;;9.76;61.79;98559.87;1704777;82;21190;-41
2021/05/03 04:57:35;;;;;;;1.17;0.97;;;;;;;9.79;61.21;98561.05;1711831;82;22085;-41
2021/05/03 05:00:05;;;;;;;3.15;0.95;;;;;;;9.84;60.52;98561.48;1721857;82;21542;-41
2021/05/03 05:02:33;;;;;;;3.22;1.30;;;;;;;9.81;60.96;98573.65;1712181;82;21171;-41
2021/05/03 05:05:01;;;;;;;2.55;1.00;;;;;;;9.81;61.24;98574.43;1726713;82;21562;-41
2021/05/03 05:07:30;;;;;;;2.95;1.10;;;;;;;9.79;60.46;98561.83;1715381;82;21167;-40
2021/05/03 05:09:57;;;;;;;1.37;1.10;;;;;;;9.78;60.76;98574.41;1720848;82;21368;-41
2021/05/03 05:12:25;;;;;;;1.82;1.10;;;;;;;9.75;60.69;98584.03;1712409;82;21489;-41
2021/05/03 05:14:53;;;;;;;2.67;1.02;;;;;;;9.78;60.93;98572.45;1723846;81;21028;-40
2021/05/03 05:17:22;;;;;;;1.75;1.22;;;;;;;9.81;61.03;98572.30;1718044;82;21068;-41
2021/05/03 05:19:50;;;;;;;2.35;1.20;;;;;;;9.84;61.08;98568.26;1715534;82;21175;-40
2021/05/03 05:22:18;;;;;;;1.72;0.85;;;;;;;9.93;60.29;98566.02;1722498;82;21278;-41
2021/05/03 05:24:46;;;;;;;1.32;1.00;;;;;;;10.01;60.34;98582.55;1733984;82;21152;-41
2021/05/03 05:27:14;;;;;;;1.82;1.05;;;;;;;10.01;60.02;98562.23;1705656;82;21208;-41
2021/05/03 05:29:43;;;;;;;1.70;1.10;;;;;;;10.04;59.89;98566.89;1706236;82;21218;-41
2021/05/03 05:32:13;;;;;;;2.27;1.10;;;;;;;10.06;60.55;98569.80;1720173;82;21179;-41
2021/05/03 05:34:41;;;;;;;2.25;1.20;;;;;;;10.12;60.58;98565.61;1713364;81;21311;-41
2021/05/03 05:37:11;;;;;;;1.40;0.90;;;;;;;10.22;59.95;98559.49;1711116;82;21159;-41
2021/05/03 05:39:40;;;;;;;1.67;1.02;;;;;;;10.32;59.63;98558.80;1717706;82;21148;-41
2021/05/03 05:42:09;;;;;;;1.40;1.20;;;;;;;10.37;58.38;98557.09;1722374;81;21158;-40
2021/05/03 05:44:37;;;;;;;0.80;0.80;;;;;;;10.40;57.93;98559.84;1724570;82;21190;-41
2021/05/03 05:47:06;;;;;;;1.25;1.00;;;;;;;10.42;57.85;98558.88;1722015;82;21886;-41
2021/05/03 05:49:34;;;;;;;1.60;0.95;;;;;;;10.43;57.04;98565.85;1737217;82;21598;-41
2021/05/03 05:52:03;;;;;;;1.47;1.02;;;;;;;10.48;58.03;98570.71;1713606;82;21048;-41
2021/05/03 05:54:31;;;;;;;1.65;1.10;;;;;;;10.55;57.15;98580.25;1723724;82;21539;-41
2021/05/03 05:56:59;;;;;;;2.33;0.90;;;;;;;10.60;56.79;98592.09;1717621;81;21167;-41
2021/05/03 05:59:27;;;;;;;2.75;1.20;;;;;;;10.66;57.64;98594.05;1732874;82;22406;-41
2021/05/03 06:01:55;;;;;;;1.82;1.00;;;;;;;10.77;56.57;98601.69;1724214;82;21142;-41
2021/05/03 06:04:25;;;;;;;1.15;1.02;;;;;;;10.85;57.20;98604.63;1728334;82;21183;-41
2021/05/03 06:06:53;;;;;;;1.52;1.10;;;;;;;10.89;56.71;98604.06;1726842;82;21180;-41
2021/05/03 06:09:21;;;;;;;3.00;1.00;;;;;;;10.89;57.65;98605.42;1722578;81;21206;-41
2021/05/03 06:11:49;;;;;;;1.37;1.12;;;;;;;10.94;56.93;98596.75;1739973;82;21257;-41
2021/05/03 06:14:17;;;;;;;1.80;1.00;;;;;;;10.96;56.18;98612.04;1742199;82;21183;-41
2021/05/03 06:16:45;;;;;;;4.05;1.10;;;;;;;10.99;55.92;98607.23;1739493;82;21203;-41
2021/05/03 06:19:13;;;;;;;2.98;1.00;;;;;;;10.71;55.18;98561.17;1728766;82;21159;-41
2021/05/03 06:21:41;;;;;;;2.00;1.25;;;;;;;11.05;56.25;98615.19;1719793;82;21123;-41
2021/05/03 06:24:09;;;;;;;1.35;1.05;;;;;;;11.03;56.03;98614.80;1718259;82;22207;-41
2021/05/03 06:26:37;;;;;;;2.60;1.12;;;;;;;10.98;55.90;98617.88;1733296;82;21170;-41
2021/05/03 06:29:05;;;;;;;1.30;1.20;;;;;;;10.93;56.37;98636.64;1714139;82;21182;-41
2021/05/03 06:31:33;;;;;;;7.15;1.37;;;;;;;10.88;55.99;98633.72;1721842;82;21463;-41
2021/05/03 06:34:02;;;;;;;1.85;1.20;;;;;;;10.82;56.07;98640.64;1716726;82;21142;-41
2021/05/03 06:36:30;;;;;;;1.42;1.10;;;;;;;10.70;56.09;98630.09;1717898;83;21213;-41
2021/05/03 06:39:00;;;;;;;2.58;1.25;;;;;;;10.69;57.26;98659.73;1709485;83;21204;-41
2021/05/03 06:41:28;;;;;;;1.55;1.05;;;;;;;10.72;56.79;98642.70;1731233;81;21131;-41
2021/05/03 06:43:56;;;;;;;2.42;1.02;;;;;;;10.73;56.38;98638.06;1740851;82;21186;-41
2021/05/03 06:46:24;;;;;;;3.87;1.10;;;;;;;10.73;56.37;98648.33;1741223;82;21157;-40
2021/05/03 06:48:53;;;;;;;2.77;1.20;;;;;;;10.75;56.82;98653.36;1725609;82;21385;-41
2021/05/03 06:51:21;;;;;;;1.52;1.00;;;;;;;10.77;56.96;98651.84;1747455;82;21142;-41
2021/05/03 06:53:51;;;;;;;2.65;1.17;;;;;;;10.43;57.16;98603.00;1739409;80;22222;-41
2021/05/03 06:56:19;;;;;;;2.80;0.90;;;;;;;10.78;56.26;98675.67;1741036;82;21155;-41
2021/05/03 06:58:47;;;;;;;1.55;1.05;;;;;;;10.76;56.67;98678.75;1747815;82;21158;-41
2021/05/03 07:01:17;;;;;;;1.40;1.00;;;;;;;10.76;57.21;98699.08;1748082;82;21374;-41
2021/05/03 07:03:44;;;;;;;3.45;1.40;;;;;;;10.71;56.49;98682.37;1747926;82;21448;-41
2021/05/03 07:06:12;;;;;;;3.22;1.30;;;;;;;10.59;56.35;98698.37;1736463;82;21373;-41
2021/05/03 07:08:42;;;;;;;1.50;1.20;;;;;;;10.50;57.47;98698.50;1719987;82;21166;-41
2021/05/03 07:11:15;;;;;;;2.95;1.30;;;;;;;10.43;58.84;98695.92;1738557;82;22297;-41
2021/05/03 07:13:43;;;;;;;1.30;1.20;;;;;;;10.37;58.60;98688.50;1733116;82;22280;-41
2021/05/03 07:16:11;;;;;;;2.00;1.30;;;;;;;10.31;58.02;98680.53;1723883;82;21182;-41
2021/05/03 07:18:42;;;;;;;1.35;1.20;;;;;;;10.29;58.34;98703.14;1739449;82;21201;-41
2021/05/03 07:21:10;;;;;;;4.20;1.30;;;;;;;10.29;59.04;98696.37;1717939;83;21427;-41
2021/05/03 07:23:41;;;;;;;4.53;1.40;;;;;;;10.26;59.05;98703.90;1714656;82;21161;-41
2021/05/03 07:26:09;;;;;;;1.82;1.30;;;;;;;10.21;59.51;98713.14;1701799;83;21285;-41
2021/05/03 07:28:39;;;;;;;4.20;1.40;;;;;;;10.15;60.00;98709.17;1699765;83;25321;-41
2021/05/03 07:31:07;;;;;;;2.20;1.32;;;;;;;10.11;60.40;98717.06;1696019;83;21197;-41
2021/05/03 07:33:35;;;;;;;4.22;1.07;;;;;;;10.10;60.22;98735.23;1689280;84;21645;-41
2021/05/03 07:36:05;;;;;;;6.05;1.50;;;;;;;10.06;59.64;98733.64;1690333;83;21672;-41
2021/05/03 07:38:33;;;;;;;3.17;1.22;;;;;;;10.02;59.74;98738.42;1653630;86;21538;-41
2021/05/03 07:41:01;;;;;;;1.62;1.40;;;;;;;9.97;58.23;98723.86;1703084;83;21190;-41
2021/05/03 07:43:29;;;;;;;2.22;1.20;;;;;;;9.96;58.08;98733.16;1713434;83;21194;-42
2021/05/03 07:46:00;;;;;;;1.90;1.15;;;;;;;9.95;57.83;98733.52;1699365;82;21204;-41
2021/05/03 07:48:28;;;;;;;1.85;1.22;;;;;;;9.95;57.87;98737.02;1712720;82;21198;-41
2021/05/03 07:50:57;;;;;;;1.80;1.20;;;;;;;9.98;57.17;98733.55;1697800;82;21294;-41
2021/05/03 07:53:25;;;;;;;1.60;1.20;;;;;;;10.02;57.37;98730.30;1704182;83;21214;-41
2021/05/03 07:55:53;;;;;;;2.02;1.20;;;;;;;10.09;56.68;98724.20;1715282;83;21020;-41
2021/05/03 07:58:24;;;;;;;1.20;1.10;;;;;;;10.19;56.71;98733.03;1710392;83;21150;-41
2021/05/03 08:00:54;;;;;;;1.77;1.00;;;;;;;10.36;56.21;98727.60;1699561;83;21099;-41
2021/05/03 08:03:22;;;;;;;1.30;1.02;;;;;;;10.52;54.70;98731.41;1701922;83;21214;-41
2021/05/03 08:05:54;;;;;;;2.15;1.30;;;;;;;10.60;55.10;98730.33;1704843;83;21194;-41
2021/05/03 08:08:22;;;;;;;2.87;1.47;;;;;;;10.61;54.55;98734.00;1708201;83;21202;-42
2021/05/03 08:10:50;;;;;;;1.32;1.22;;;;;;;10.57;54.95;98744.04;1702963;83;21218;-41
2021/05/03 08:13:18;;;;;;;2.75;1.47;;;;;;;10.53;54.58;98750.58;1707853;83;21110;-41
2021/05/03 08:15:48;;;;;;;1.70;1.40;;;;;;;10.48;54.47;98743.58;1718217;83;22180;-41
2021/05/03 08:18:16;;;;;;;2.02;1.20;;;;;;;10.42;54.67;98745.06;1705568;82;21180;-41
2021/05/03 08:20:44;;;;;;;1.57;1.35;;;;;;;10.38;54.12;98745.60;1689444;84;21202;-41
2021/05/03 08:23:18;;;;;;;2.98;1.22;;;;;;;10.37;54.57;98761.66;1689285;84;21206;-41
2021/05/03 08:25:43;;;;;;;1.77;1.30;;;;;;;10.40;54.27;98752.80;1696102;83;21557;-41
2021/05/03 08:28:13;;;;;;;2.22;1.50;;;;;;;10.43;54.05;98761.53;1702883;83;21234;-41
2021/05/03 08:30:41;;;;;;;2.65;1.30;;;;;;;10.42;54.01;98754.55;1689315;84;20980;-41
2021/05/03 08:33:09;;;;;;;1.57;1.27;;;;;;;10.44;53.54;98743.55;1689443;84;21186;-41
2021/05/03 08:35:37;;;;;;;1.32;1.20;;;;;;;10.54;55.08;98762.41;1713239;83;21178;-41
2021/05/03 08:38:05;;;;;;;1.87;1.27;;;;;;;10.35;53.91;98702.44;1725389;82;21620;-41
2021/05/03 08:40:34;;;;;;;3.45;1.35;;;;;;;10.77;54.52;98750.80;1694726;83;21415;-41
2021/05/03 08:43:03;;;;;;;3.30;1.37;;;;;;;10.83;53.54;98747.95;1683616;83;21204;-41
2021/05/03 08:45:32;;;;;;;4.28;1.45;;;;;;;10.88;54.21;98751.67;1690055;84;21642;-41
2021/05/03 08:48:07;;;;;;;1.55;1.45;;;;;;;10.97;53.66;98760.05;1704784;84;21630;-41
2021/05/03 08:53:24;;;;;;;2.27;1.70;;;;;;;10.85;52.96;98763.83;1703954;84;21202;-41
2021/05/03 08:55:49;;;;;;;3.45;1.80;;;;;;;10.78;53.17;98771.34;1689062;83;21187;-41
2021/05/03 08:58:17;;;;;;;2.10;1.62;;;;;;;10.72;52.49;98763.92;1684533;84;22183;-41
2021/05/03 09:00:46;;;;;;;2.27;1.40;;;;;;;10.66;52.56;98777.61;1703903;84;21500;-41
2021/05/03 09:03:14;;;;;;;2.17;1.80;;;;;;;10.57;53.01;98786.63;1684860;83;21198;-41
2021/05/03 09:05:43;;;;;;;1.62;1.52;;;;;;;10.50;53.04;98781.15;1693496;84;21203;-41
2021/05/03 09:08:24;;;;;;;2.25;1.60;;;;;;;10.49;53.25;98786.36;1694664;83;21702;-41
2021/05/03 09:11:02;;;;;;;2.25;1.52;;;;;;;10.62;53.49;98787.64;1812726;78;22886;-41
2021/05/03 09:13:36;;;;;;;1.65;1.52;;;;;;;10.72;52.88;98790.45;1784263;79;21613;-40
2021/05/03 09:16:23;;;;;;;3.55;1.55;;;;;;;10.80;51.35;98792.06;1775904;79;21355;-40
2021/05/03 09:18:51;;;;;;;3.20;1.60;;;;;;;10.83;52.30;98769.64;1775575;80;21023;-41
2021/05/03 09:21:32;;;;;;;2.08;1.50;;;;;;;10.86;52.42;98786.52;1777882;79;21131;-40
2021/05/03 09:24:16;;;;;;;2.22;1.42;;;;;;;10.89;51.39;98772.19;1775672;80;21727;-41
2021/05/03 09:26:49;;;;;;;3.15;1.42;;;;;;;10.94;51.96;98779.80;1781259;79;20945;-41
2021/05/03 09:29:29;;;;;;;3.12;1.50;;;;;;;10.98;52.55;98774.61;1803657;79;21402;-41
2021/05/03 09:32:22;;;;;;;2.25;1.47;;;;;;;11.05;51.37;98771.93;1775754;79;21044;-42
2021/05/03 09:34:53;;;;;;;1.62;1.40;;;;;;;11.16;52.09;98767.94;1775162;79;21031;-43
2021/05/03 09:37:38;;;;;;;1.77;1.40;;;;;;;11.25;51.00;98771.10;1775940;79;20980;-43
2021/05/03 09:40:14;;;;;;;1.60;1.47;;;;;;;11.33;50.79;98775.41;1776601;79;20901;-43
2021/05/03 09:42:53;;;;;;;3.25;1.67;;;;;;;11.40;51.17;98761.90;1775855;80;22006;-43
2021/05/03 09:45:34;;;;;;;1.75;1.50;;;;;;;11.41;50.68;98770.82;1775781;79;20994;-43
2021/05/03 09:48:02;;;;;;;3.10;1.32;;;;;;;11.44;50.37;98772.77;1775995;79;21107;-43
2021/05/03 09:50:34;;;;;;;1.73;1.60;;;;;;;11.42;49.86;98763.66;1775703;80;21120;-43
2021/05/03 09:53:09;;;;;;;1.90;1.62;;;;;;;11.51;51.17;98768.17;1775826;79;21775;-46
2021/05/03 09:58:29;;;;;;;1.72;1.30;;;;;;;12.04;50.49;98758.15;1805377;78;22566;-43
2021/05/03 10:00:58;;;;;;;2.35;1.35;;;;;;;12.23;50.06;98760.53;1771690;80;21020;-43
2021/05/03 10:06:13;;;;;;;1.50;1.40;;;;;;;12.61;48.90;98765.84;1815088;79;21319;-43
2021/05/03 10:08:46;;;;;;;2.17;1.40;;;;;;;12.70;48.16;98777.11;1814107;79;21036;-43
2021/05/03 10:13:53;;;;;;;2.55;1.70;;;;;;;12.66;47.04;98751.08;1839917;78;22678;-43
2021/05/03 10:16:22;;;;;;;2.30;1.45;;;;;;;12.48;46.72;98783.12;1815204;79;21048;-43
2021/05/03 10:18:51;;;;;;;1.42;1.30;;;;;;;12.35;47.60;98778.41;1762753;80;22237;-43
2021/05/03 10:21:19;;;;;;;3.80;1.50;;;;;;;12.45;48.53;98793.39;1782876;80;21026;-43
2021/05/03 10:23:47;;;;;;;4.03;1.98;;;;;;;12.67;47.14;98778.48;1787714;79;21054;-43
2021/05/03 10:26:15;;;;;;;3.60;1.52;;;;;;;12.90;46.63;98791.90;1815155;78;21019;-43
2021/05/03 10:28:53;;;;;;;4.05;1.50;;;;;;;13.07;46.98;98794.41;1815329;79;26708;-43
2021/05/03 10:31:22;;;;;;;2.05;1.50;;;;;;;13.36;47.99;98781.61;1815170;79;22564;-43
2021/05/03 10:33:50;;;;;;;2.70;1.65;;;;;;;13.70;46.05;98786.00;1815180;79;20968;-43
2021/05/03 10:36:39;;;;;;;1.90;1.57;;;;;;;14.04;46.06;98797.92;1815320;79;20988;-43
2021/05/03 10:39:30;;;;;;;4.58;1.82;;;;;;;14.22;44.41;98782.28;1814435;77;21743;-43
2021/05/03 10:42:07;;;;;;;4.45;1.80;;;;;;;14.27;44.08;98797.45;1789606;79;21162;-43
2021/05/03 10:44:38;;;;;;;2.75;1.80;;;;;;;14.18;43.88;98799.84;1783103;79;21307;-45
2021/05/03 10:47:34;;;;;;;2.65;1.55;;;;;;;14.08;44.97;98797.93;1789325;78;21173;-43
2021/05/03 10:49:59;;;;;;;1.75;1.60;;;;;;;13.98;45.69;98806.92;1814651;79;21150;-43
2021/05/03 10:52:36;;;;;;;2.42;1.75;;;;;;;13.73;44.66;98798.83;1808342;78;21774;-43
2021/05/03 10:55:05;;;;;;;1.92;1.77;;;;;;;13.49;45.46;98784.88;1783052;79;21841;-43
2021/05/03 10:57:35;;;;;;;3.70;1.85;;;;;;;13.37;45.69;98788.59;1742630;80;21359;-42
2021/05/03 11:00:07;;;;;;;2.35;1.40;;;;;;;13.31;46.20;98795.00;1706441;83;21215;-42
2021/05/03 11:02:44;;;;;;;3.98;1.67;;;;;;;13.23;45.15;98801.63;1733203;81;21185;-42
2021/05/03 11:05:18;;;;;;;1.67;1.40;;;;;;;13.19;44.33;98795.42;1732653;82;21192;-42
2021/05/03 11:08:09;;;;;;;2.58;1.60;;;;;;;13.17;45.07;98808.62;1732718;82;21692;-43
2021/05/03 11:11:11;;;;;;;4.85;1.60;;;;;;;13.35;44.89;98803.97;1732509;82;21289;-43
2021/05/03 11:13:49;;;;;;;1.75;1.37;;;;;;;13.75;43.98;98814.17;1722820;81;21205;-43
2021/05/03 11:16:33;;;;;;;2.87;1.70;;;;;;;14.04;42.86;98783.55;1718527;83;21585;-43
2021/05/03 11:19:04;;;;;;;2.33;1.50;;;;;;;14.25;42.19;98783.42;1718214;83;21197;-43
2021/05/03 11:21:46;;;;;;;3.95;1.90;;;;;;;14.38;41.31;98789.25;1714425;82;21198;-42
2021/05/03 11:24:20;;;;;;;3.52;1.70;;;;;;;14.51;41.40;98798.52;1718151;83;22245;-43
2021/05/03 11:26:57;;;;;;;2.67;1.45;;;;;;;14.58;42.16;98782.09;1726012;82;21183;-43
2021/05/03 11:29:24;;;;;;;3.92;1.92;;;;;;;14.63;42.64;98808.36;1747136;82;21189;-43
2021/05/03 11:31:52;;;;;;;8.93;1.72;;;;;;;14.78;42.83;98812.55;1747747;82;21162;-42
2021/05/03 11:34:26;;;;;;;5.12;1.70;;;;;;;14.80;41.63;98803.98;1747662;82;21689;-42
2021/05/03 11:37:07;;;;;;;2.58;1.80;;;;;;;14.89;41.65;98800.79;1732812;80;21275;-43
2021/05/03 11:39:55;;;;;;;3.45;1.52;;;;;;;15.02;41.73;98812.18;1701336;84;21762;-44
2021/05/03 11:45:06;;;;;;;6.83;1.82;;;;;;;15.19;40.64;98822.20;1731112;82;20298;-43
2021/05/03 11:47:41;;;;;;;4.92;1.60;;;;;;;15.11;40.14;98828.88;1704468;81;21592;-44
2021/05/03 11:50:10;;;;;;;7.08;1.90;;;;;;;15.09;39.95;98825.80;1759312;79;22105;-44
2021/05/03 11:52:39;;;;;;;3.25;1.57;;;;;;;15.11;40.01;98822.05;1766942;81;21199;-44
2021/05/03 11:58:08;;;;;;;7.05;2.10;;;;;;;15.42;38.81;98824.33;1817109;78;23007;-43
2021/05/03 12:00:37;;;;;;;5.42;1.98;;;;;;;15.15;39.40;98818.70;1748416;82;21031;-43
2021/05/03 12:03:08;;;;;;;7.72;2.05;;;;;;;14.76;39.92;98832.63;1778412;80;21367;-43
2021/05/03 12:05:37;;;;;;;6.47;1.95;;;;;;;14.60;40.82;98822.03;1752773;80;21468;-43
2021/05/03 12:08:16;;;;;;;5.33;1.57;;;;;;;14.53;40.42;98809.20;1714731;83;21081;-43
2021/05/03 12:10:44;;;;;;;7.80;1.97;;;;;;;14.64;41.29;98818.69;1779513;80;21178;-43
2021/05/03 12:13:19;;;;;;;5.90;2.15;;;;;;;14.67;40.87;98828.21;1725353;82;21078;-43
2021/05/03 12:15:47;;;;;;;4.95;1.82;;;;;;;14.85;41.56;98830.84;1720129;82;23529;-43
2021/05/03 12:18:18;;;;;;;5.67;2.25;;;;;;;14.84;40.04;98822.46;1778264;80;21008;-44
2021/05/03 12:20:46;;;;;;;5.95;1.82;;;;;;;14.72;39.95;98828.38;1779096;80;20988;-43
2021/05/03 12:23:16;;;;;;;8.50;2.12;;;;;;;14.49;40.72;98830.86;1779088;80;21189;-44